Weather observations for the past three days for
Brunswick / Glynco
Metric (Imperial)
Date Time (edt) Wind (kph) Vis. (km) Weather Sky Cond. Temperature (ºC) Relative Humidity Wind Chill (°C) Heat Index (°C) Pressure Precipitation (cm)
Air Dwpt 6 hour altimeter (cm) sea level (mb) 1 hr 3 hr 6 hr
Max. Min.
05 22:55 S 9 16.09 Fair CLR 18.9 13.1 69% 76.28 0.0
05 22:35 SE 7 16.09 Fair CLR 18.9 12.3 66% 76.25 0.0
05 22:15 SE 7 16.09 Fair CLR 19.4 13.2 68% 76.25 0.0
05 21:55 SE 9 16.09 Fair CLR 19.2 13.3 69% 76.25 0.0
05 21:35 SE 9 16.09 Fair CLR 19.6 13.1 66% 76.23 0.0
05 21:15 SE 9 16.09 Fair CLR 19.9 12.9 64% 76.23 0.0
05 20:55 SE 11 16.09 Fair CLR 20.2 12.5 61% 76.23 0.0
05 20:35 SE 11 16.09 Fair CLR 20.6 12.6 60% 76.23 0.0
05 20:15 SE 13 16.09 Fair CLR 21 12.7 59% 76.2 0.0
05 19:55 SE 13 16.09 Fair CLR 21.8 13.1 28.4 21.7 58% 76.2 0.0
05 19:35 SE 17 16.09 Fair CLR 22.7 13.4 56% 76.23 0.0
05 19:15 SE 19 16.09 Fair CLR 23.8 13.2 52% 76.2 0.0
05 18:55 SE 19 16.09 Fair CLR 24.1 13.5 52% 25 76.23 0.0
05 18:35 SE 20 16.09 Fair CLR 24.7 13.6 50% 26 76.2 0.0
05 18:15 SE 20 16.09 Fair CLR 25 13.4 49% 26 76.2 0.0
05 17:55 SE 26 16.09 Fair CLR 25.6 13.8 48% 26 76.2 0.0
05 17:35 SE 20 16.09 Fair CLR 25.4 14 49% 26 76.23 0.0
05 17:15 SE 22 16.09 Fair CLR 26.7 14.7 48% 27 76.23 0.0
05 16:35 SE 20 16.09 Fair CLR 27.2 13.7 43% 27 76.23 0.0
05 16:15 SE 17 G 33 16.09 Fair CLR 27.4 12.2 39% 27 76.25 0.0
05 15:55 E 19 16.09 Fair CLR 28 12.5 38% 28 76.25 0.0
05 15:35 E 20 16.09 Fair CLR 27.9 12.3 38% 27 76.28 0.0
05 15:15 SE 20 G 33 16.09 Fair CLR 27.7 12.9 40% 27 76.28 0.0
05 14:55 SE 24 16.09 Fair CLR 28.1 13.6 41% 28 76.3 0.0
05 14:35 SE 22 G 30 16.09 Fair CLR 28.2 14 42% 28 76.33 0.0
05 14:15 SE 20 16.09 Fair CLR 28.2 14 42% 28 76.33 0.0
05 13:55 SE 20 16.09 Fair CLR 27.8 14.3 28.2 14.2 44% 28 76.33 0.0
05 13:35 SE 22 16.09 Fair CLR 27.9 14.5 44% 28 76.33 0.0
05 13:15 S 22 16.09 Fair CLR 27.9 14.4 44% 28 76.33 0.0
05 12:55 SE 19 16.09 Fair CLR 27.7 14.4 44% 28 76.35 0.0
05 12:35 SE 15 16.09 Fair CLR 27.9 14.3 43% 28 76.35 0.0
05 12:15 E 11 16.09 Fair CLR 28 13.9 42% 28 76.35 0.0
05 11:55 SE 15 16.09 Fair CLR 28.1 13.6 41% 28 76.35 0.0
05 11:15 SE 17 16.09 Fair CLR 27.2 12.8 41% 27 76.38 0.0
05 10:55 SE 11 16.09 Fair CLR 26.6 13.8 45% 27 76.38 0.0
05 10:35 S 11 16.09 Fair CLR 26.1 13.9 47% 27 76.35 0.0
05 10:15 SE 7 16.09 Fair CLR 25.4 14.5 51% 26 76.35 0.0
05 09:55 SE 9 16.09 Fair CLR 24.8 14.8 54% 26 76.35 0.0
05 09:35 S 11 16.09 Fair CLR 24.1 15.6 59% 25 76.35 0.0
05 09:15 SE 9 16.09 Fair CLR 23.1 18.1 74% 76.35 0.0
05 08:55 E 6 16.09 Fair CLR 20.8 19.4 92% 76.33 0.0
05 08:35 Calm 16.09 Fair CLR 18 17.2 95% 76.33 0.0
05 08:15 Calm 16.09 Fair CLR 16.3 15.8 97% 76.3 0.0
05 07:55 Calm 16.09 Fair CLR 13.9 13.2 17.8 10.7 96% 76.3 0.0
05 07:35 Calm 16.09 Fair CLR 12.9 12.2 96% 76.3 0.0
05 07:15 Calm 16.09 Fair CLR 11.4 10.6 95% 76.28 0.0
05 06:55 Calm 16.09 Fair CLR 11.1 10.3 95% 76.28 0.0
05 06:35 Calm 16.09 Fair CLR 10.9 10.1 95% 76.28 0.0
05 06:15 Calm 16.09 Fair CLR 10.8 10 95% 76.28 0.0
05 05:55 Calm 16.09 Fair CLR 11.1 10.3 95% 76.23 0.0
05 05:35 W 6 16.09 Fair CLR 11.4 10.6 95% 76.23 0.0
05 05:15 Calm 6.44 Fog/Mist CLR 11.2 10.1 93% 76.2 0.0
05 04:55 Calm 16.09 Fair CLR 11.1 9 87% 76.23 0.0
05 04:35 Calm 16.09 Fair CLR 11.6 9.8 89% 76.2 0.0
05 04:15 Calm 16.09 Fair CLR 11.4 8.8 84% 76.2 0.0
05 03:55 Calm 16.09 Fair CLR 12.3 10.2 87% 76.2 0.0
05 03:35 Calm 16.09 Fair CLR 12.9 9.5 80% 76.2 0.0
05 03:15 Calm 16.09 Fair CLR 13.4 9.8 79% 76.23 0.0
05 02:55 S 6 16.09 Fair CLR 14.9 9.9 72% 76.23 0.0
05 02:35 SW 7 16.09 Fair CLR 17.1 11.6 70% 76.23 0.0
05 02:15 S 9 16.09 Fair CLR 17.8 12.7 72% 76.25 0.0
05 01:35 SE 11 16.09 Fair CLR 17.8 12.4 71% 76.28 0.0
05 01:15 SE 11 16.09 Fair CLR 17.9 12.5 71% 76.3 0.0
05 00:55 SE 11 16.09 Fair CLR 18 12.7 71% 76.33 0.0
05 00:15 SE 11 16.09 Fair CLR 18.1 13 72% 76.33 0.0
04 23:55 SE 11 16.09 Fair CLR 18 12.9 72% 76.33 0.0
04 23:35 SE 11 16.09 Fair CLR 18.1 13.1 73% 76.33 0.0
04 23:15 SE 9 16.09 Fair CLR 18 12.7 71% 76.33 0.0
04 22:55 SE 9 16.09 Fair CLR 18.1 12.4 70% 76.3 0.0
04 22:35 SE 11 16.09 Fair CLR 18.5 12.5 68% 76.3 0.0
04 22:15 SE 11 16.09 Fair CLR 18.6 12.7 69% 76.3 0.0
04 21:55 SE 13 16.09 Fair CLR 18.5 12.9 70% 76.3 0.0
04 21:35 SE 13 16.09 Fair CLR 18.2 12.7 70% 76.3 0.0
04 21:15 SE 11 16.09 Fair CLR 18.3 12.2 68% 76.3 0.0
04 20:55 SE 11 16.09 Fair CLR 18.6 11.8 65% 76.3 0.0
04 20:35 SE 9 16.09 Fair CLR 19.2 11.4 61% 76.3 0.0
04 20:15 SE 11 16.09 Fair CLR 19.9 11.2 57% 76.28 0.0
04 19:55 SE 15 16.09 Fair CLR 21.2 11 26.7 21 52% 76.28 0.0
04 19:35 SE 19 16.09 Fair CLR 22.2 10.9 49% 76.28 0.0
04 19:15 SE 20 16.09 Fair CLR 23 10.7 46% 76.28 0.0
04 18:55 SE 19 16.09 Fair CLR 23.5 10.6 44% 76.28 0.0
04 18:35 SE 17 16.09 Fair CLR 24.1 10.6 43% 25 76.28 0.0
04 18:15 SE 20 G 30 16.09 Fair CLR 24.7 10.4 41% 26 76.3 0.0
04 17:55 SE 19 16.09 Fair CLR 24.8 10 39% 26 76.28 0.0
04 17:35 SE 19 16.09 Fair CLR 25.3 10 38% 26 76.28 0.0
04 17:15 SE 19 G 30 16.09 Fair CLR 25.7 9.2 35% 26 76.28 0.0
04 16:55 SE 19 16.09 Fair CLR 25.6 9 35% 26 76.28 0.0
04 16:35 SE 17 16.09 Fair CLR 26 8.7 34% 26 76.28 0.0
04 15:55 SE 19 G 31 16.09 Fair CLR 26.4 8.1 31% 26 76.33 0.0
04 15:35 SE 20 G 31 16.09 Fair CLR 26.5 7.3 30% 26 76.33 0.0
04 15:15 SE 17 G 31 16.09 Fair CLR 26.4 7.1 29% 26 76.35 0.0
04 14:55 SE 15 16.09 Fair CLR 26.1 7.3 30% 26 76.38 0.0
04 14:35 SE 17 G 30 16.09 Fair CLR 26.3 7.5 30% 26 76.38 0.0
04 14:15 SE 20 G 30 16.09 Fair CLR 26.5 7.2 29% 26 76.38 0.0
04 13:55 SE 19 G 30 16.09 Fair CLR 26.4 7.5 26.9 11.9 30% 26 76.38 0.0
04 13:35 SE 15 16.09 Fair CLR 26.2 8 32% 26 76.4 0.0
04 13:15 SE 15 16.09 Fair CLR 26.2 8.1 32% 26 76.38 0.0
04 12:55 SE 17 16.09 Fair CLR 26.3 8.8 33% 26 76.4 0.0
04 12:35 SE 17 G 28 16.09 Fair CLR 26.9 8.9 32% 26 76.43 0.0
04 12:15 NE 9 G 33 16.09 Fair CLR 26.1 6.8 29% 26 76.4 0.0
04 11:55 E 15 16.09 Fair CLR 26.1 6.9 29% 26 76.43 0.0
04 11:35 W 7 16.09 Fair CLR 25 6.5 31% 25 76.43 0.0
04 11:15 NW 7 16.09 Fair CLR 25.3 6.5 30% 26 76.43 0.0
04 10:55 N 11 16.09 Fair CLR 24.9 6.8 31% 25 76.45 0.0
04 10:35 NW 7 16.09 Fair CLR 24.8 7.2 33% 25 76.45 0.0
04 10:15 W 7 16.09 Fair CLR 24.3 9.9 40% 25 76.43 0.0
04 09:55 W 6 16.09 Fair CLR 22.8 11.8 50% 76.43 0.0
04 09:35 Calm 16.09 Fair CLR 21.5 14 62% 76.43 0.0
04 09:15 Calm 16.09 Fair CLR 19.1 17.8 92% 76.45 0.0
04 08:55 Calm 16.09 Fair CLR 17.1 16.7 98% 76.43 0.0
04 08:35 Calm 16.09 Fair CLR 15 14.6 97% 76.43 0.0
04 08:15 Calm 16.09 Fair CLR 13.4 13 97% 76.43 0.0
04 07:55 Calm 16.09 Fair CLR 11.7 11.3 11.8 7.5 97% 76.43 0.0
04 07:35 Calm 16.09 Fair CLR 9.9 9.6 98% 76.4 0.0
04 07:15 Calm 1.21 Fog/Mist VV005 8.2 7.8 97% 76.4 0.0
04 06:55 Calm 8.05 Fog/Mist CLR 7.9 7.4 97% 76.38 0.0
04 06:35 Calm 1.21 Fog/Mist BKN002 7.7 7.1 96% 76.35 0.0
04 06:15 Calm 0.80 Fog BKN002 7.8 7.3 97% 76.35 0.0
04 05:55 Calm 0.80 Fog BKN002 7.9 7.3 96% 76.35 0.0
04 05:35 Calm 0.80 Fog OVC002 8.5 7.9 96% 76.35 0.0
04 05:15 Calm 0.24 Fog OVC002 8.9 8.2 95% 76.38 0.0
04 04:55 Calm 0.40 Fog VV002 9.1 8.5 96% 76.38 0.0
04 04:35 Calm 1.61 Fog/Mist VV007 8.8 8.1 95% 76.38 0.0
04 04:15 Calm 8.05 Fog/Mist CLR 8.5 7.8 95% 76.38 0.0
04 03:55 Calm 6.44 Fog/Mist CLR 8.7 8 95% 76.38 0.0
04 03:35 Calm 11.27 Fog/Mist CLR 8.9 8.1 95% 76.38 0.0
04 03:15 Calm 3.22 Fog/Mist VV007 9 8.1 94% 76.4 0.0
04 02:55 Calm 6.44 Fog/Mist CLR 9.2 8.3 94% 76.4 0.0
04 02:35 Calm 4.83 Fog/Mist CLR 9.2 8.4 95% 76.4 0.0
04 02:15 N 6 2.01 Fog/Mist VV007 9.4 8.5 94% 76.43 0.0
04 01:55 Calm 11.27 Fog/Mist CLR 9.8 9 19.1 9.7 95% 76.43 0.0
04 01:35 Calm 16.09 Fair CLR 9.9 9.1 95% 76.43 0.0
04 01:15 Calm 11.27 Fair CLR 9.9 9.1 95% 76.45 0.0
04 00:55 Calm 16.09 Fair CLR 10 9.2 95% 76.45 0.0
04 00:35 Calm 16.09 Fair CLR 10.1 9.3 95% 76.45 0.0
04 00:15 Calm 16.09 Fair CLR 10.2 9.3 94% 76.45 0.0
03 23:55 Calm 16.09 Fair CLR 10.3 9.2 93% 76.45 0.0
03 23:35 Calm 16.09 Fair CLR 10.5 9.4 93% 76.45 0.0
03 23:15 Calm 16.09 Fair CLR 10.6 9.2 91% 76.45 0.0
03 22:55 Calm 16.09 Fair CLR 11 9.4 90% 76.45 0.0
03 22:35 Calm 16.09 Fair CLR 11.2 9.2 88% 76.45 0.0
03 22:15 Calm 16.09 Fair CLR 11.8 9.9 88% 76.45 0.0
03 21:55 Calm 16.09 Fair CLR 12.3 9.9 85% 76.43 0.0
03 21:35 Calm 16.09 Fair CLR 13.1 8.7 75% 76.4 0.0
03 21:15 Calm 16.09 Fair CLR 13.8 7.2 65% 76.4 0.0
03 20:55 Calm 16.09 Fair CLR 15.4 9.3 67% 76.38 0.0
03 20:35 SE 7 16.09 Fair CLR 17.2 9.5 61% 76.38 0.0
03 20:15 SE 9 16.09 Fair CLR 18 9.4 57% 76.38 0.0
03 19:55 SE 11 16.09 Fair CLR 19.4 9.4 25.2 19.2 53% 76.35 0.0
03 19:35 SE 15 16.09 Fair CLR 20.3 9.2 49% 76.35 0.0
03 19:15 SE 19 16.09 Fair CLR 20.8 8.8 46% 76.38 0.0
03 18:55 SE 17 16.09 Fair CLR 20.2 9.4 50% 76.35 0.0
03 18:35 E 15 16.09 Fair CLR 20.8 9.2 48% 76.38 0.0
03 18:15 SE 17 16.09 Fair CLR 21.3 8.7 45% 76.35 0.0
03 17:55 SE 15 16.09 Fair CLR 21.9 9.2 44% 76.35 0.0
03 17:35 E 11 16.09 Fair CLR 22.1 9.5 45% 76.35 0.0
03 17:15 E 11 16.09 Fair CLR 22.8 9.3 42% 76.35 0.0
03 16:55 SE 19 16.09 Fair CLR 23.3 9.7 42% 76.38 0.0
03 16:35 SE 19 16.09 Fair CLR 23.4 9.6 42% 76.38 0.0
03 16:15 E 11 16.09 Partly Cloudy SCT048 SCT050 23.3 9.5 42% 76.38 0.0
03 15:55 E 17 G 26 16.09 Partly Cloudy SCT048 SCT050 23.6 10.2 43% 76.4 0.0
03 15:35 E 17 16.09 Partly Cloudy SCT044 SCT050 22.1 10.2 47% 76.43 0.0
03 15:15 SE 13 16.09 Overcast BKN046 OVC050 21.7 10.5 49% 76.45 0.0
03 14:55 E 17 16.09 Overcast SCT046 OVC060 23 10.1 44% 76.48 0.0
03 14:35 E 15 G 26 16.09 Overcast OVC047 24.2 10 41% 25 76.48 0.0
03 14:15 E 13 16.09 Overcast OVC050 22.6 10.4 46% 76.5 0.0
03 13:55 Calm 16.09 Mostly Cloudy BKN050 22.4 8.7 24.2 12.4 42% 76.5 0.0
03 13:35 E 19 16.09 Fair CLR 23 10.7 46% 76.53 0.0
03 13:15 NE 19 16.09 Partly Cloudy SCT038 23 9.8 43% 76.53 0.0
03 12:55 E 24 16.09 Partly Cloudy SCT035 SCT043 SCT049 22.5 11.2 49% 76.56 0.0
03 12:35 NE 11 16.09 Partly Cloudy SCT035 SCT046 21.2 11.7 55% 76.56 0.0
03 12:15 E 17 16.09 Fair CLR 21.9 11.5 52% 76.56 0.0
03 11:55 E 15 16.09 Partly Cloudy SCT030 21.9 12.4 55% 76.56 0.0
03 11:35 E 17 16.09 Partly Cloudy SCT030 20.3 10.7 54% 76.56 0.0
03 11:15 NE 13 16.09 Fair CLR 20.7 12.4 59% 76.56 0.0
03 10:55 NE 15 16.09 Fair CLR 20 12.3 61% 76.56 0.0
03 10:35 NE 13 16.09 Fair CLR 19.2 12.2 64% 76.53 0.0
03 10:15 N 7 16.09 Fair CLR 18.3 11.3 64% 76.53 0.0
03 09:55 N 11 16.09 Fair CLR 17.2 12.1 72% 76.5 0.0
03 09:35 N 7 16.09 Fair CLR 16.1 13.8 86% 76.5 0.0
03 09:15 N 9 16.09 Fair CLR 14.5 13.9 96% 76.5 0.0
03 08:55 N 11 16.09 Fair CLR 13.7 13.4 98% 76.48 0.0
03 08:35 N 9 16.09 Fair CLR 13.1 12.9 99% 76.48 0.0
03 08:15 N 9 16.09 Fair CLR 12.9 12.8 99% 76.45 0.0
03 07:55 Calm 16.09 Fair CLR 12.3 12.1 12.9 10.4 99% 76.45 0.0
03 07:35 Calm 16.09 Fair CLR 11.8 11.6 99% 76.43 0.0
03 07:15 Calm 16.09 Fair CLR 11.2 11 99% 76.43 0.0
03 06:55 N 7 16.09 Fair CLR 10.9 10.7 99% 76.4 0.0
03 06:35 N 7 16.09 Fair CLR 10.7 10.5 99% 76.38 0.0
03 06:15 N 7 11.27 Fog/Mist CLR 10.5 10.3 99% 76.38 0.0
03 05:55 N 6 8.05 Fog/Mist SCT005 10.6 10.4 99% 76.35 0.0
03 05:35 N 6 11.27 Fog/Mist SCT005 10.5 10.2 98% 76.33 0.0
03 05:15 Calm 3.22 Fog/Mist CLR 10.8 10.5 98% 76.33 0.0
03 04:55 N 6 11.27 Fair CLR 11.3 11.1 99% 76.33 0.0
03 04:35 N 6 8.05 Fog/Mist CLR 11.5 11.2 98% 76.3 0.0
03 04:15 NW 7 11.27 Fair CLR 11.8 11.5 98% 76.3 0.0
03 03:55 NW 6 16.09 Fair CLR 12.2 11.9 98% 76.3 0.0
03 03:35 NW 7 16.09 Fair CLR 12.5 12.2 98% 76.28 0.0
03 03:15 W 7 16.09 Partly Cloudy SCT039 SCT050 12.7 12.4 98% 76.28 0.0
03 02:55 NW 9 16.09 Overcast BKN039 OVC048 12.7 12.4 98% 76.28 0.0
03 02:35 Calm 16.09 Overcast OVC046 12.8 12.5 98% 76.25 0.0
03 02:15 N 6 16.09 Overcast OVC045 12.6 12.3 98% 76.25 0.0
03 01:50 N 6 16.09 Overcast OVC043 12.1 11.9 15.6 10.6 99% 76.25 0.0
03 01:35 NW 6 8.05 Fog/Mist BKN045 BKN055 10.9 10.6 98% 76.25 0.0
03 01:15 Calm 8.05 Fog/Mist SCT002 SCT049 10.7 10.3 97% 76.25 0.0
03 00:55 Calm 0.80 Fog BKN002 10.8 10.3 97% 76.23 0.0
03 00:35 Calm 1.61 Fog/Mist VV007 11 10.6 97% 76.2 0.0
03 00:15 Calm 1.21 Fog/Mist VV005 11.3 10.8 97% 76.2 0.0
02 23:55 Calm 16.09 Fair CLR 12.2 11.7 97% 76.2 0.0
02 23:35 N 6 16.09 Fair CLR 12.9 12.4 97% 76.2 0.0
02 23:15 NW 7 16.09 Fair CLR 13.2 12.8 97% 76.17 0.0
Date Time (edt) Wind (kph) Vis. (km) Weather Sky Cond. Air Dwpt Max. Min. Relative Humidity Wind Chill (°C) Heat Index (°C) altimeter (cm) sea level (mb) 1 hr 3 hr 6 hr
6 hour
Temperature (ºC) Pressure Precipitation (cm)